Tuesday, July 25, 2017, 2:33 AM EDT

KJYO, Leesburg / Godfrey

Location: Leesburg, VA, United States Lat: 39.083
Local Time: 2:33 AM EDT ( 6:33 GMT) Lon: -77.567
Time Zone: US/Eastern Elev: 390 ft

Show me the last for .
Show Decoded

2017-07-25 02:15 METAR KJYO 250615Z AUTO 36010G16KT 10SM CLR 23/17 A2998 RMK AO2 =
2017-07-25 01:55 METAR KJYO 250555Z AUTO 35009KT 10SM CLR 24/18 A2998 RMK AO2 =
2017-07-25 01:35 METAR KJYO 250535Z AUTO 34007KT 10SM CLR 24/18 A2998 RMK AO2 =
2017-07-25 01:15 METAR KJYO 250515Z AUTO 36008G16KT 10SM CLR 25/19 A2997 RMK AO2 =
2017-07-25 00:55 METAR KJYO 250455Z AUTO 01007KT 10SM CLR 25/20 A2996 RMK AO2 =
2017-07-25 00:35 METAR KJYO 250435Z AUTO 35012G16KT 10SM SCT090 25/20 A2995 RMK AO2 =
2017-07-25 00:15 METAR KJYO 250415Z AUTO 35012G17KT 10SM SCT090 26/20 A2994 RMK AO2 =
2017-07-24 23:55 METAR KJYO 250355Z AUTO 35012G16KT 10SM SCT100 26/21 A2993 RMK AO2 =
2017-07-24 23:35 METAR KJYO 250335Z AUTO 36011G15KT 10SM OVC100 26/21 A2993 RMK AO2 =
2017-07-24 23:15 METAR KJYO 250315Z AUTO 35006KT 10SM BKN110 27/21 A2992 RMK AO2 =
2017-07-24 22:55 METAR KJYO 250255Z AUTO 34005KT 10SM CLR 27/21 A2992 RMK AO2 =
2017-07-24 22:35 METAR KJYO 250235Z AUTO 34009KT 10SM SCT095 27/21 A2991 RMK AO2 =
2017-07-24 22:15 METAR KJYO 250215Z AUTO 33007KT 10SM CLR 27/21 A2991 RMK AO2 =
2017-07-24 21:55 METAR KJYO 250155Z AUTO 33006KT 10SM SCT090 SCT110 27/22 A2990 RMK AO2 =
2017-07-24 21:35 METAR KJYO 250135Z AUTO 34006KT 10SM SCT100 BKN110 28/23 A2989 RMK AO2 =
2017-07-24 21:15 METAR KJYO 250115Z AUTO 33003KT 10SM BKN100 27/24 A2988 RMK AO2 =
2017-07-24 20:55 METAR KJYO 250055Z AUTO 27004KT 10SM SCT100 27/24 A2986 RMK AO2 =
2017-07-24 20:35 METAR KJYO 250035Z AUTO 31005KT 10SM SCT100 28/25 A2985 RMK AO2 =
2017-07-24 20:15 METAR KJYO 250015Z AUTO 24004KT 10SM CLR 29/24 A2984 RMK AO2 LTG DSNT NE =
2017-07-24 19:55 METAR KJYO 242355Z AUTO 24005KT 10SM SCT065 SCT110 29/24 A2984 RMK AO2 =
2017-07-24 19:35 METAR KJYO 242335Z AUTO 23004KT 10SM SCT065 SCT120 30/24 A2984 RMK AO2 LTG DSNT
                 NE =
2017-07-24 19:15 METAR KJYO 242315Z AUTO 22004KT 10SM CLR 30/23 A2984 RMK AO2 =
2017-07-24 18:55 METAR KJYO 242255Z AUTO 21004KT 10SM CLR 31/23 A2983 RMK AO2 =
2017-07-24 18:35 METAR KJYO 242235Z AUTO 20009KT 10SM SCT095 SCT120 31/23 A2983 RMK AO2 =
2017-07-24 18:15 METAR KJYO 242215Z AUTO 22006KT 10SM SCT060 BKN095 BKN120 31/23 A2983 RMK AO2 =
2017-07-24 17:55 METAR KJYO 242155Z AUTO 20008KT 10SM SCT050 SCT060 SCT110 31/23 A2982 RMK AO2 =
2017-07-24 17:35 METAR KJYO 242135Z AUTO 18012KT 10SM CLR 33/22 A2982 RMK AO2 =
2017-07-24 17:15 METAR KJYO 242115Z AUTO 20007KT 10SM CLR 33/22 A2982 RMK AO2 =
2017-07-24 16:55 METAR KJYO 242055Z AUTO 25004KT 10SM CLR 33/22 A2983 RMK AO2 =
2017-07-24 16:35 METAR KJYO 242035Z AUTO 24004KT 10SM CLR 33/22 A2983 RMK AO2 =
2017-07-24 16:15 METAR KJYO 242015Z AUTO 22006KT 10SM CLR 33/22 A2983 RMK AO2 =
2017-07-24 15:55 METAR KJYO 241955Z AUTO 20005KT 10SM CLR 33/22 A2983 RMK AO2 =
2017-07-24 15:35 METAR KJYO 241935Z AUTO 28008KT 210V280 10SM CLR 33/22 A2984 RMK AO2 =
2017-07-24 15:15 METAR KJYO 241915Z AUTO 26005KT 10SM SCT050 SCT110 33/22 A2984 RMK AO2 =
2017-07-24 14:55 METAR KJYO 241855Z AUTO 22003KT 10SM SCT047 SCT055 32/21 A2985 RMK AO2 =
2017-07-24 14:15 METAR KJYO 241815Z AUTO 34003KT 10SM SCT046 BKN055 BKN065 31/21 A2985 RMK AO2 =
2017-07-24 13:55 METAR KJYO 241755Z AUTO 29004KT 10SM SCT050 SCT065 32/21 A2985 RMK AO2 =
2017-07-24 13:35 METAR KJYO 241735Z AUTO 30004KT 10SM SCT060 31/22 A2985 RMK AO2 =
2017-07-24 13:15 METAR KJYO 241715Z AUTO 27004KT 10SM SCT050 31/21 A2985 RMK AO2 =
2017-07-24 12:55 METAR KJYO 241655Z AUTO 33008KT 10SM CLR 30/21 A2985 RMK AO2 =
2017-07-24 12:35 METAR KJYO 241635Z AUTO 29009KT 10SM SCT039 31/22 A2985 RMK AO2 =
2017-07-24 12:15 METAR KJYO 241615Z AUTO 31004KT 10SM BKN039 30/22 A2985 RMK AO2 =
2017-07-24 11:55 METAR KJYO 241555Z AUTO 00000KT 10SM BKN041 BKN046 BKN050 30/22 A2985 RMK AO2 =
2017-07-24 11:35 METAR KJYO 241535Z AUTO 33005KT 10SM SCT041 SCT050 30/22 A2985 RMK AO2 =
2017-07-24 11:15 METAR KJYO 241515Z AUTO 31009G15KT 10SM SCT031 29/22 A2985 RMK AO2 =
2017-07-24 10:55 METAR KJYO 241455Z AUTO 33008KT 10SM SCT035 28/22 A2985 RMK AO2 =
2017-07-24 10:35 METAR KJYO 241435Z AUTO 29004KT 10SM SCT035 28/22 A2985 RMK AO2 =
2017-07-24 10:15 METAR KJYO 241415Z AUTO 29008KT 10SM CLR 28/22 A2985 RMK AO2 =
2017-07-24 09:55 METAR KJYO 241355Z AUTO 00000KT 10SM SCT029 SCT035 27/21 A2985 RMK AO2 =
2017-07-24 09:35 METAR KJYO 241335Z AUTO 01005KT 10SM SCT029 SCT037 27/21 A2985 RMK AO2 =
2017-07-24 09:15 METAR KJYO 241315Z AUTO 35004KT 10SM SCT039 26/21 A2985 RMK AO2 =
2017-07-24 08:55 METAR KJYO 241255Z AUTO 35006KT 10SM CLR 26/21 A2985 RMK AO2 =
2017-07-24 08:35 METAR KJYO 241235Z AUTO 34004KT 10SM CLR 26/22 A2985 RMK AO2 =
2017-07-24 08:15 METAR KJYO 241215Z AUTO 35003KT 10SM CLR 26/22 A2983 RMK AO2 =
2017-07-24 07:55 METAR KJYO 241155Z AUTO 31004KT 10SM CLR 25/22 A2982 RMK AO2 =
2017-07-24 07:35 METAR KJYO 241135Z AUTO 00000KT 10SM CLR 24/23 A2981 RMK AO2 =
2017-07-24 07:15 METAR KJYO 241115Z AUTO 29004KT 10SM CLR 23/23 A2979 RMK AO2 =
2017-07-24 06:55 METAR KJYO 241055Z AUTO 00000KT 10SM CLR 23/23 A2978 RMK AO2 =
2017-07-24 06:35 METAR KJYO 241035Z AUTO 00000KT 10SM CLR 23/23 A2978 RMK AO2 =
2017-07-24 06:15 METAR KJYO 241015Z AUTO 33004KT 10SM CLR 23/23 A2977 RMK AO2 =
2017-07-24 05:55 METAR KJYO 240955Z AUTO 34007KT 10SM CLR 23/23 A2976 RMK AO2 =
2017-07-24 05:35 METAR KJYO 240935Z AUTO 33006KT 7SM SCT003 23/23 A2976 RMK AO2 =
2017-07-24 05:15 METAR KJYO 240915Z AUTO 00000KT 3SM BR SCT003 22/22 A2976 RMK AO2 =
2017-07-24 04:55 METAR KJYO 240855Z AUTO 00000KT 5SM BR CLR 22/22 A2976 RMK AO2 =
2017-07-24 04:35 METAR KJYO 240835Z AUTO 00000KT 7SM CLR 22/22 A2976 RMK AO2 =
2017-07-24 04:15 METAR KJYO 240815Z AUTO 00000KT 10SM CLR 23/23 A2975 RMK AO2 =
2017-07-24 03:55 METAR KJYO 240755Z AUTO 18003KT 10SM SCT100 23/23 A2975 RMK AO2 =
2017-07-24 03:35 METAR KJYO 240735Z AUTO 00000KT 10SM SCT100 23/23 A2975 RMK AO2 =
2017-07-24 03:15 METAR KJYO 240715Z AUTO 00000KT 10SM SCT008 SCT110 23/23 A2976 RMK AO2 =
2017-07-24 02:55 METAR KJYO 240655Z AUTO 00000KT 10SM BKN010 OVC110 23/23 A2977 RMK AO2 =
2017-07-24 02:35 METAR KJYO 240635Z AUTO 00000KT 10SM OVC010 23/23 A2977 RMK AO2 =

Support USWX by starting your Amazon purchase here.